»·PEaware :: N9BR KSAN-KSBA

N9BR :: KSAN-KSBA

FLIGHT INFORMATION

Flight Status: Arrived
Operator: Privately registered:
United States
More flights under this callsign
Pilot: John H. (7647)
Aircraft: MOONEY M-20 201 202 205 220 ATS MSE
(M20P)
More flights by this aircraft type
Origin: KSAN San Diego Intl-Lindbergh
United States
Destination: KSBA Santa Barbara Mun
United States
More flights between these airports :: More routes between these airports
Route: +OCN V23 LAX V299 VTU VTU282R KWANG
File this flight plan on PilotEdge
Remarks: TEC route SANP35
Altitude:
(Current/Filed)
6,000ft
Speed:
(Current/Filed)
170kts
Departed: 07-Oct-18 02:01 PM
Arrived: 07-Oct-18 03:04 PM
Distance/Time
Traveled:
167nm/1:03
Distance/Time
To Go:
Arrived

Flight Plot

Page will automatically refresh every two minutes.


Map Options




Map Legend


Flown Route
Filed Route
Departure Airport
Arrival Airport
Navaid (VOR, NDB)
Fix

Horizontal Profiles

Position Reports

Time Latitude Longitude Heading Altitude Ground
Speed
07-Oct-18 13:30 32.732010 -117.176221 194 15ft 0kts
07-Oct-18 13:31 32.732010 -117.176221 194 15ft 0kts
07-Oct-18 13:32 32.732010 -117.176221 194 15ft 0kts
07-Oct-18 13:33 32.732010 -117.176221 194 15ft 0kts
07-Oct-18 13:34 32.732010 -117.176221 194 15ft 0kts
07-Oct-18 13:35 32.732010 -117.176221 194 15ft 0kts
07-Oct-18 13:36 32.732010 -117.176221 194 15ft 0kts
07-Oct-18 13:37 32.732010 -117.176221 194 15ft 0kts
07-Oct-18 13:38 32.732010 -117.176221 194 15ft 0kts
07-Oct-18 13:39 32.732010 -117.176221 194 15ft 0kts
07-Oct-18 13:40 32.732010 -117.176221 194 15ft 0kts
07-Oct-18 13:41 32.732010 -117.176221 194 15ft 0kts
07-Oct-18 13:42 32.732010 -117.176221 194 15ft 0kts
07-Oct-18 13:43 32.732010 -117.176221 194 15ft 0kts
07-Oct-18 13:44 32.732010 -117.176221 194 15ft 0kts
07-Oct-18 13:45 32.732010 -117.176221 194 15ft 0kts
07-Oct-18 13:46 32.732010 -117.176221 194 15ft 0kts
07-Oct-18 13:47 32.732010 -117.176221 194 15ft 0kts
07-Oct-18 13:48 32.732010 -117.176221 194 15ft 0kts
07-Oct-18 13:49 32.732010 -117.176221 194 15ft 0kts
07-Oct-18 13:50 32.732010 -117.176221 194 15ft 0kts
07-Oct-18 13:51 32.732010 -117.176221 194 15ft 0kts
07-Oct-18 13:52 32.732010 -117.176221 194 15ft 0kts
07-Oct-18 13:53 32.732010 -117.176221 194 15ft 0kts
07-Oct-18 13:54 32.732010 -117.176221 194 15ft 0kts
07-Oct-18 13:55 32.732010 -117.176221 194 15ft 0kts
07-Oct-18 13:56 32.732010 -117.176221 194 15ft 0kts
07-Oct-18 13:57 32.732010 -117.176221 194 15ft 0kts
07-Oct-18 13:58 32.732010 -117.176221 194 15ft 0kts
07-Oct-18 13:59 32.732010 -117.176221 194 15ft 0kts
07-Oct-18 14:00 32.732004 -117.176223 195 15ft 0kts
07-Oct-18 14:01 32.730880 -117.175483 135 15ft 0kts
07-Oct-18 14:02 32.730236 -117.175341 224 15ft 9kts
07-Oct-18 14:03 32.735562 -117.197534 282 336ft 128kts
07-Oct-18 14:04 32.760093 -117.228371 322 1894ft 138kts
07-Oct-18 14:05 32.794234 -117.257133 316 2896ft 156kts
07-Oct-18 14:06 32.828648 -117.285902 320 4188ft 156kts
07-Oct-18 14:07 32.866926 -117.309352 344 5386ft 161kts
07-Oct-18 14:08 32.910305 -117.321815 343 5978ft 184kts
07-Oct-18 14:09 32.960843 -117.336444 343 5977ft 200kts
07-Oct-18 14:10 33.014306 -117.351982 343 5956ft 204kts
07-Oct-18 14:11 33.069116 -117.367874 343 5950ft 196kts
07-Oct-18 14:12 33.114726 -117.381155 343 5949ft 192kts
07-Oct-18 14:13 33.149507 -117.391301 344 5946ft 191kts
07-Oct-18 14:14 33.198921 -117.405728 342 5949ft 190kts
07-Oct-18 14:15 33.245291 -117.424911 317 6177ft 176kts
07-Oct-18 14:16 33.279689 -117.463704 315 6185ft 179kts
07-Oct-18 14:17 33.312495 -117.501784 315 6185ft 179kts
07-Oct-18 14:18 33.348159 -117.543367 314 6184ft 179kts
07-Oct-18 14:19 33.383019 -117.584070 314 6184ft 179kts
07-Oct-18 14:20 33.416851 -117.623596 313 6079ft 183kts
07-Oct-18 14:21 33.449186 -117.663896 303 5994ft 182kts
07-Oct-18 14:22 33.479667 -117.711740 303 5998ft 187kts
07-Oct-18 14:23 33.510426 -117.760147 303 5997ft 190kts
07-Oct-18 14:24 33.542003 -117.809931 303 5996ft 190kts
07-Oct-18 14:25 33.572008 -117.857302 303 5996ft 190kts
07-Oct-18 14:26 33.603483 -117.907060 302 5997ft 190kts
07-Oct-18 14:27 33.634628 -117.956365 303 5996ft 189kts
07-Oct-18 14:28 33.665199 -118.004845 303 6005ft 189kts
07-Oct-18 14:29 33.693364 -118.049562 305 6020ft 187kts
07-Oct-18 14:30 33.723066 -118.096765 305 6025ft 187kts
07-Oct-18 14:31 33.750497 -118.140422 305 6024ft 187kts
07-Oct-18 14:32 33.781224 -118.189361 305 6023ft 187kts
07-Oct-18 14:33 33.811125 -118.236992 303 5968ft 189kts
07-Oct-18 14:34 33.840588 -118.284082 303 5995ft 184kts
07-Oct-18 14:35 33.869997 -118.331150 304 5995ft 181kts
07-Oct-18 14:36 33.899235 -118.377994 304 5995ft 180kts
07-Oct-18 14:37 33.929331 -118.426261 304 5992ft 180kts
07-Oct-18 14:38 33.947973 -118.479163 289 5995ft 178kts
07-Oct-18 14:39 33.965413 -118.533684 289 5996ft 178kts
07-Oct-18 14:40 33.983062 -118.589063 288 5995ft 178kts
07-Oct-18 14:41 34.000672 -118.644492 288 5992ft 178kts
07-Oct-18 14:42 34.017228 -118.696664 287 5997ft 182kts
07-Oct-18 14:43 34.035351 -118.753867 286 5999ft 184kts
07-Oct-18 14:44 34.051576 -118.812362 284 5979ft 185kts
07-Oct-18 14:45 34.066901 -118.869629 284 5971ft 185kts
07-Oct-18 14:46 34.082624 -118.928510 284 5969ft 184kts
07-Oct-18 14:47 34.098172 -118.986857 285 5998ft 183kts
07-Oct-18 14:48 34.111938 -119.038634 284 6023ft 184kts
07-Oct-18 14:49 34.132013 -119.090448 293 6020ft 187kts
07-Oct-18 14:50 34.155325 -119.145886 293 5345ft 184kts
07-Oct-18 14:51 34.178290 -119.200678 293 4490ft 182kts
07-Oct-18 14:52 34.200508 -119.253821 294 4022ft 170kts
07-Oct-18 14:53 34.221341 -119.303626 294 4023ft 166kts
07-Oct-18 14:54 34.242234 -119.353526 294 4022ft 166kts
07-Oct-18 14:55 34.263036 -119.403424 294 3648ft 165kts
07-Oct-18 14:56 34.283518 -119.452765 294 3027ft 159kts
07-Oct-18 14:57 34.302973 -119.499586 294 3023ft 156kts
07-Oct-18 14:58 34.322451 -119.548751 292 3019ft 169kts
07-Oct-18 14:59 34.342436 -119.600200 293 2485ft 165kts
07-Oct-18 15:00 34.361763 -119.650179 293 2100ft 166kts
07-Oct-18 15:01 34.380115 -119.697649 293 2096ft 160kts
07-Oct-18 15:02 34.398010 -119.746384 293 1797ft 156kts
07-Oct-18 15:03 34.412918 -119.785199 290 849ft 100kts
07-Oct-18 15:04 34.423678 -119.812092 296 338ft 84kts
07-Oct-18 15:05 34.427882 -119.838688 263 15ft 67kts
07-Oct-18 15:06 34.428463 -119.845555 46 9ft 0kts
07-Oct-18 15:07 34.429041 -119.844087 65 9ft 20kts
07-Oct-18 15:08 34.431615 -119.836783 67 12ft 18kts
07-Oct-18 15:09 34.432698 -119.835745 176 12ft 0kts
07-Oct-18 15:10 34.432699 -119.835745 176 12ft 0kts
07-Oct-18 15:11 34.432699 -119.835745 176 12ft 0kts
07-Oct-18 15:12 34.432699 -119.835745 176 12ft 0kts

Navigation Log

Ident Type
1. KSAN Airport
2. OCN Navaid
3. KELPS Fix
4. DANAH Fix
5. KRAUZ Fix
6. BALBO Fix
7. MIDDS Fix
8. SLI Navaid
9. POPPR Fix
10. HERMO Fix
11. LAX Navaid
12. SADDE Fix
13. VTU Navaid
14. KWANG Fix
15. KSBA Airport